createdAt,value
2024-03-07T00:01:28.248Z,14.10
2024-03-07T00:03:56.397Z,14.40
2024-03-07T00:06:23.190Z,14.20
2024-03-07T00:08:50.915Z,14.90
2024-03-07T00:11:19.175Z,12.90
2024-03-07T00:13:46.161Z,13.60
2024-03-07T00:16:12.995Z,14.00
2024-03-07T00:18:41.306Z,14.50
2024-03-07T00:21:08.272Z,16.10
2024-03-07T00:23:35.146Z,14.60
2024-03-07T00:26:03.538Z,16.00
2024-03-07T00:28:30.792Z,14.70
2024-03-07T00:30:57.591Z,16.30
2024-03-07T00:33:26.578Z,16.80
2024-03-07T00:35:55.382Z,17.70
2024-03-07T00:38:24.653Z,16.90
2024-03-07T00:40:51.654Z,14.70
2024-03-07T00:43:18.595Z,14.40
2024-03-07T00:45:46.872Z,14.60
2024-03-07T00:48:13.783Z,14.90
2024-03-07T00:50:41.192Z,16.80
2024-03-07T00:53:09.475Z,17.20
2024-03-07T00:55:36.599Z,16.10
2024-03-07T00:58:03.663Z,15.40
2024-03-07T01:00:31.933Z,15.50
2024-03-07T01:02:58.887Z,16.80
2024-03-07T01:05:26.049Z,17.30
2024-03-07T01:07:54.209Z,18.80
2024-03-07T01:10:21.350Z,17.30
2024-03-07T01:12:48.280Z,17.20
2024-03-07T01:15:16.869Z,13.90
2024-03-07T01:17:43.927Z,16.40
2024-03-07T01:20:11.334Z,16.60
2024-03-07T01:22:39.618Z,16.20
2024-03-07T01:25:06.379Z,17.50
2024-03-07T01:27:33.166Z,17.80
2024-03-07T01:30:01.239Z,16.20
2024-03-07T01:32:28.199Z,16.20
2024-03-07T01:34:55.428Z,16.60
2024-03-07T01:37:23.566Z,16.70
2024-03-07T01:39:50.367Z,18.00
2024-03-07T01:42:17.342Z,16.80
2024-03-07T01:44:45.543Z,15.30
2024-03-07T01:47:12.595Z,14.80
2024-03-07T01:49:39.615Z,15.80
2024-03-07T01:52:07.889Z,16.40
2024-03-07T01:54:34.829Z,16.10
2024-03-07T01:57:02.176Z,17.10
2024-03-07T01:59:30.485Z,16.30
2024-03-07T02:01:57.407Z,14.60
2024-03-07T02:04:24.347Z,15.70
2024-03-07T02:06:52.424Z,15.70
2024-03-07T02:09:19.193Z,15.80
2024-03-07T02:11:46.069Z,18.10
2024-03-07T02:14:14.383Z,16.90
2024-03-07T02:16:41.832Z,16.40
2024-03-07T02:19:08.790Z,15.70
2024-03-07T02:21:36.956Z,16.80
2024-03-07T02:24:03.903Z,17.00
2024-03-07T02:26:30.654Z,17.70
2024-03-07T02:28:58.918Z,18.80
2024-03-07T02:31:25.768Z,17.00
2024-03-07T02:33:52.588Z,17.20
2024-03-07T02:36:20.787Z,15.90
2024-03-07T02:38:48.057Z,17.20
2024-03-07T02:41:14.989Z,18.10
2024-03-07T02:43:43.150Z,17.00
2024-03-07T02:46:10.084Z,18.30
2024-03-07T02:48:37.195Z,17.70
2024-03-07T02:51:05.302Z,16.80
2024-03-07T02:53:32.285Z,16.10
2024-03-07T02:55:59.290Z,17.90
2024-03-07T02:58:27.477Z,16.10
2024-03-07T03:00:54.406Z,16.90
2024-03-07T03:03:21.197Z,17.40
2024-03-07T03:05:49.469Z,16.60
2024-03-07T03:08:16.433Z,15.80
2024-03-07T03:10:43.105Z,15.30
2024-03-07T03:13:11.141Z,16.40
2024-03-07T03:15:38.027Z,16.60
2024-03-07T03:18:05.543Z,16.50
2024-03-07T03:20:34.115Z,16.90
2024-03-07T03:23:10.864Z,17.10
2024-03-07T03:25:47.467Z,14.30
2024-03-07T03:28:14.350Z,16.60
2024-03-07T03:30:41.127Z,16.50
2024-03-07T03:33:09.393Z,17.30
2024-03-07T03:35:36.350Z,18.50
2024-03-07T03:38:03.227Z,14.10
2024-03-07T03:40:31.261Z,15.50
2024-03-07T03:42:58.017Z,17.30
2024-03-07T03:45:25.241Z,17.90
2024-03-07T03:47:53.578Z,17.00
2024-03-07T03:50:20.668Z,13.80
2024-03-07T03:52:47.688Z,17.90
2024-03-07T03:55:15.698Z,18.00
2024-03-07T03:57:42.702Z,18.20
2024-03-07T04:00:09.745Z,16.60
2024-03-07T04:02:38.077Z,17.00
2024-03-07T04:05:04.962Z,16.80
2024-03-07T04:07:32.239Z,17.90
2024-03-07T04:10:00.608Z,17.70
2024-03-07T04:12:27.606Z,19.60
2024-03-07T04:14:54.464Z,18.90
2024-03-07T04:17:22.719Z,17.60
2024-03-07T04:19:49.653Z,16.30
2024-03-07T04:22:16.652Z,17.40
2024-03-07T04:24:44.806Z,18.20
2024-03-07T04:27:11.977Z,18.80
2024-03-07T04:29:38.869Z,17.40
2024-03-07T04:32:06.989Z,18.00
2024-03-07T04:34:33.936Z,17.40
2024-03-07T04:37:00.782Z,17.40
2024-03-07T04:39:29.061Z,18.70
2024-03-07T04:41:58.168Z,17.00
2024-03-07T04:44:27.657Z,17.80
2024-03-07T04:46:54.494Z,16.10
2024-03-07T04:49:21.745Z,19.70
2024-03-07T04:51:49.919Z,18.20
2024-03-07T04:54:16.679Z,16.50
2024-03-07T04:56:43.520Z,19.00
2024-03-07T04:59:11.827Z,18.10
2024-03-07T05:01:38.735Z,19.30
2024-03-07T05:04:05.526Z,18.60
2024-03-07T05:06:33.739Z,20.10
2024-03-07T05:09:00.573Z,17.10
2024-03-07T05:11:27.422Z,18.70
2024-03-07T05:13:55.696Z,19.00
2024-03-07T05:16:22.540Z,18.50
2024-03-07T05:18:49.403Z,18.30
2024-03-07T05:21:17.549Z,18.50
2024-03-07T05:23:44.419Z,19.20
2024-03-07T05:26:11.440Z,17.60
2024-03-07T05:28:40.020Z,17.00
2024-03-07T05:31:06.872Z,17.70
2024-03-07T05:33:33.824Z,19.30
2024-03-07T05:36:02.117Z,18.40
2024-03-07T05:38:29.294Z,18.80
2024-03-07T05:40:56.273Z,20.40
2024-03-07T05:43:24.359Z,17.40
2024-03-07T05:45:51.389Z,16.40
2024-03-07T05:48:18.990Z,17.90
2024-03-07T05:50:47.897Z,16.60
2024-03-07T05:53:15.034Z,16.90
2024-03-07T05:55:41.930Z,17.40
2024-03-07T05:58:10.102Z,19.00
2024-03-07T06:00:36.995Z,16.80
2024-03-07T06:03:03.991Z,17.00
2024-03-07T06:05:32.323Z,16.20
2024-03-07T06:07:59.220Z,16.30
2024-03-07T06:10:26.303Z,16.00
2024-03-07T06:13:05.246Z,17.00
2024-03-07T06:15:38.897Z,17.40
2024-03-07T06:18:06.003Z,16.60
2024-03-07T06:20:33.014Z,16.70
2024-03-07T06:23:01.164Z,15.00
2024-03-07T06:25:28.004Z,14.50
2024-03-07T06:27:54.948Z,15.90
2024-03-07T06:30:23.232Z,14.70
2024-03-07T06:32:50.621Z,15.20
2024-03-07T06:35:17.658Z,15.70
2024-03-07T06:37:45.899Z,14.80
2024-03-07T06:40:12.840Z,15.10
2024-03-07T06:42:39.808Z,16.80
2024-03-07T06:45:08.066Z,15.60
2024-03-07T06:47:35.170Z,14.00
2024-03-07T06:50:02.357Z,15.20
2024-03-07T06:52:30.851Z,14.40
2024-03-07T06:54:58.197Z,15.00
2024-03-07T06:57:25.139Z,15.50
2024-03-07T06:59:53.653Z,15.20
2024-03-07T07:02:20.932Z,14.80
2024-03-07T07:04:48.022Z,15.10
2024-03-07T07:07:16.299Z,15.10
2024-03-07T07:09:43.340Z,12.70
2024-03-07T07:12:10.357Z,13.80
2024-03-07T07:14:38.809Z,14.80
2024-03-07T07:17:09.409Z,13.90
2024-03-07T07:19:39.314Z,15.20
2024-03-07T07:22:06.371Z,13.80
2024-03-07T07:24:33.617Z,15.40
2024-03-07T07:27:02.541Z,15.20
2024-03-07T07:29:29.593Z,14.90
2024-03-07T07:31:56.600Z,14.20
2024-03-07T07:34:24.975Z,11.80
2024-03-07T07:36:52.226Z,13.20
2024-03-07T07:39:19.180Z,13.60
2024-03-07T07:41:47.493Z,12.70
2024-03-07T07:44:14.548Z,14.50
2024-03-07T07:46:41.871Z,15.00
2024-03-07T07:49:10.346Z,13.80
2024-03-07T07:51:37.193Z,14.60
2024-03-07T07:54:04.240Z,14.10
2024-03-07T07:56:32.413Z,16.40
2024-03-07T07:58:59.633Z,14.80
2024-03-07T08:01:26.461Z,14.50
2024-03-07T08:03:54.648Z,13.00
2024-03-07T08:06:21.660Z,14.00
2024-03-07T08:08:48.600Z,13.30
2024-03-07T08:11:17.152Z,14.10
2024-03-07T08:13:44.174Z,14.30
2024-03-07T08:16:11.121Z,14.40
2024-03-07T08:18:39.409Z,13.80
2024-03-07T08:21:06.441Z,14.60
2024-03-07T08:23:33.635Z,14.20
2024-03-07T08:26:02.175Z,13.90
2024-03-07T08:28:29.220Z,13.30
2024-03-07T08:30:56.067Z,14.00
2024-03-07T08:33:24.422Z,14.70
2024-03-07T08:35:51.690Z,15.40
2024-03-07T08:38:19.189Z,14.10
2024-03-07T08:40:47.221Z,14.30
2024-03-07T08:43:14.374Z,14.20
2024-03-07T08:45:41.416Z,13.50
2024-03-07T08:48:09.802Z,14.50
2024-03-07T08:50:37.262Z,13.60
2024-03-07T08:53:04.299Z,14.00
2024-03-07T08:55:32.452Z,13.10
2024-03-07T08:57:59.518Z,14.50
2024-03-07T09:00:27.723Z,13.70
2024-03-07T09:02:57.154Z,14.70
2024-03-07T09:05:24.845Z,29.40
2024-03-07T09:07:52.424Z,28.80
2024-03-07T09:10:20.689Z,20.70
2024-03-07T09:12:47.739Z,54.10
2024-03-07T09:15:14.747Z,21.90
2024-03-07T09:17:43.242Z,76.90
2024-03-07T09:20:11.867Z,24.70
2024-03-07T09:22:41.257Z,15.50
2024-03-07T09:25:08.503Z,14.70
2024-03-07T09:27:35.453Z,19.30
2024-03-07T09:30:03.673Z,28.40
2024-03-07T09:32:30.907Z,14.20
2024-03-07T09:34:58.058Z,15.70
2024-03-07T09:37:26.402Z,15.60
2024-03-07T09:39:53.452Z,16.10
2024-03-07T09:42:20.699Z,15.80
2024-03-07T09:44:49.421Z,15.00
2024-03-07T09:47:16.454Z,31.20
2024-03-07T09:49:43.476Z,15.80
2024-03-07T09:52:11.749Z,15.70
2024-03-07T09:54:38.701Z,15.90
2024-03-07T09:57:05.869Z,16.30
2024-03-07T09:59:34.287Z,15.70
2024-03-07T10:02:01.477Z,14.70
2024-03-07T10:04:28.631Z,18.30
2024-03-07T10:06:57.321Z,26.70
2024-03-07T10:09:24.253Z,20.80
2024-03-07T10:11:51.148Z,18.70
2024-03-07T10:14:19.396Z,15.40
2024-03-07T10:16:46.377Z,15.80
2024-03-07T10:19:13.238Z,16.50
2024-03-07T10:21:41.388Z,20.00
2024-03-07T10:24:08.277Z,17.00
2024-03-07T10:26:36.013Z,21.90
2024-03-07T10:29:04.624Z,20.40
2024-03-07T10:31:31.659Z,17.30
2024-03-07T10:33:58.717Z,42.50
2024-03-07T10:36:27.100Z,18.10
2024-03-07T10:38:54.164Z,17.80
2024-03-07T10:41:21.629Z,17.50
2024-03-07T10:43:49.982Z,16.90
2024-03-07T10:46:17.027Z,17.40
2024-03-07T10:48:44.559Z,16.80
2024-03-07T10:51:13.035Z,17.90
2024-03-07T10:53:40.048Z,16.90
2024-03-07T10:56:07.255Z,17.50
2024-03-07T10:58:35.354Z,16.20
2024-03-07T11:01:02.323Z,17.00
2024-03-07T11:03:29.634Z,17.80
2024-03-07T11:05:58.218Z,16.60
2024-03-07T11:08:25.750Z,17.10
2024-03-07T11:10:52.770Z,18.00
2024-03-07T11:13:21.098Z,18.40
2024-03-07T11:15:48.154Z,18.80
2024-03-07T11:18:15.444Z,18.90
2024-03-07T11:20:44.116Z,18.40
2024-03-07T11:23:11.231Z,18.90
2024-03-07T11:25:38.286Z,18.60
2024-03-07T11:28:06.766Z,18.10
2024-03-07T11:30:33.799Z,19.60
2024-03-07T11:33:00.708Z,18.20
2024-03-07T11:35:29.051Z,20.10
2024-03-07T11:37:56.176Z,19.20
2024-03-07T11:40:23.055Z,20.10
2024-03-07T11:42:51.390Z,16.80
2024-03-07T11:45:18.647Z,18.20
2024-03-07T11:47:45.842Z,18.50
2024-03-07T11:50:14.285Z,17.60
2024-03-07T11:52:41.827Z,21.10
2024-03-07T11:55:08.749Z,18.70
2024-03-07T11:57:37.053Z,19.20
2024-03-07T12:00:04.160Z,19.40
2024-03-07T12:02:31.448Z,19.00
2024-03-07T12:04:59.725Z,19.40
2024-03-07T12:07:26.544Z,19.00
2024-03-07T12:09:53.385Z,23.60
2024-03-07T12:12:21.578Z,23.80
2024-03-07T12:14:49.102Z,20.30
2024-03-07T12:17:16.192Z,18.30
2024-03-07T12:19:44.681Z,24.40
2024-03-07T12:22:11.619Z,20.60
2024-03-07T12:24:38.772Z,33.80
2024-03-07T12:27:07.055Z,18.70
2024-03-07T12:29:34.001Z,29.40
2024-03-07T12:32:01.135Z,19.70
2024-03-07T12:34:31.234Z,30.80
2024-03-07T12:36:58.303Z,27.40
2024-03-07T12:39:25.257Z,28.80
2024-03-07T12:41:54.006Z,21.10
2024-03-07T12:44:21.235Z,23.70
2024-03-07T12:46:48.332Z,19.40
2024-03-07T12:49:16.709Z,26.70
2024-03-07T12:51:43.660Z,19.60
2024-03-07T12:54:10.739Z,20.10
2024-03-07T12:56:39.530Z,22.40
2024-03-07T12:59:06.644Z,19.00
2024-03-07T13:01:33.744Z,24.40
2024-03-07T13:04:01.898Z,20.80
2024-03-07T13:06:28.909Z,22.30
2024-03-07T13:08:55.925Z,19.30
2024-03-07T13:11:25.504Z,22.10
2024-03-07T13:13:52.685Z,20.00
2024-03-07T13:16:19.857Z,20.80
2024-03-07T13:18:49.089Z,18.60
2024-03-07T13:21:16.240Z,21.40
2024-03-07T13:23:43.381Z,18.00
2024-03-07T13:26:11.734Z,16.20
2024-03-07T13:28:38.680Z,18.40
2024-03-07T13:31:05.718Z,21.50
2024-03-07T13:33:34.328Z,27.90
2024-03-07T13:36:01.489Z,43.60
2024-03-07T13:38:28.769Z,23.40
2024-03-07T13:40:56.776Z,29.70
2024-03-07T13:43:23.963Z,46.40
2024-03-07T13:45:51.179Z,27.90
2024-03-07T13:48:19.749Z,31.70
2024-03-07T13:50:55.665Z,38.80
2024-03-07T13:53:27.413Z,32.00
2024-03-07T13:55:55.818Z,65.30
2024-03-07T13:58:25.626Z,42.80
2024-03-07T14:00:52.553Z,52.80
2024-03-07T14:03:20.169Z,23.90
2024-03-07T14:05:48.606Z,38.30
2024-03-07T14:08:15.805Z,23.90
2024-03-07T14:10:42.894Z,22.90
2024-03-07T14:13:11.001Z,27.60
2024-03-07T14:15:37.812Z,24.60
2024-03-07T14:18:04.793Z,19.70
2024-03-07T14:20:33.065Z,19.30
2024-03-07T14:23:00.122Z,19.40
2024-03-07T14:25:27.490Z,21.30
2024-03-07T14:27:55.759Z,22.20
2024-03-07T14:30:22.799Z,20.90
2024-03-07T14:32:50.021Z,17.70
2024-03-07T14:35:18.467Z,20.50
2024-03-07T14:37:45.686Z,18.40
2024-03-07T14:40:12.737Z,19.50
2024-03-07T14:42:40.819Z,23.30
2024-03-07T14:45:08.189Z,19.60
2024-03-07T14:47:35.232Z,18.30
2024-03-07T14:50:03.688Z,16.80
2024-03-07T14:52:30.832Z,18.90
2024-03-07T14:54:57.695Z,19.70
2024-03-07T14:57:26.097Z,18.50
2024-03-07T14:59:53.101Z,17.20
2024-03-07T15:02:20.343Z,16.80
2024-03-07T15:04:48.834Z,19.90
2024-03-07T15:07:16.301Z,19.30
2024-03-07T15:09:43.441Z,18.70
2024-03-07T15:12:11.856Z,19.20
2024-03-07T15:14:40.444Z,16.60
2024-03-07T15:17:10.113Z,16.00
2024-03-07T15:19:37.276Z,16.80
2024-03-07T15:22:04.561Z,17.90
2024-03-07T15:24:32.989Z,18.60
2024-03-07T15:27:00.461Z,18.50
2024-03-07T15:29:27.716Z,18.50
2024-03-07T15:31:56.087Z,16.80
2024-03-07T15:34:23.096Z,18.40
2024-03-07T15:36:50.065Z,17.30
2024-03-07T15:39:18.570Z,18.70
2024-03-07T15:41:45.814Z,19.70
2024-03-07T15:44:13.070Z,19.90
2024-03-07T15:46:41.336Z,17.90
2024-03-07T15:49:08.740Z,18.20
2024-03-07T15:51:36.142Z,17.80
2024-03-07T15:54:04.499Z,17.50
2024-03-07T15:56:31.710Z,17.00
2024-03-07T15:58:58.819Z,17.10
2024-03-07T16:01:27.011Z,17.00
2024-03-07T16:03:53.940Z,19.90
2024-03-07T16:06:20.808Z,20.50
2024-03-07T16:08:49.108Z,18.60
2024-03-07T16:11:16.146Z,17.80
2024-03-07T16:13:43.145Z,19.30
2024-03-07T16:16:11.214Z,18.30
2024-03-07T16:18:38.216Z,20.30
2024-03-07T16:21:05.502Z,20.60
2024-03-07T16:23:34.001Z,22.00
2024-03-07T16:26:01.035Z,21.30
2024-03-07T16:28:28.092Z,21.90
2024-03-07T16:30:56.160Z,22.00
2024-03-07T16:33:23.249Z,21.60
2024-03-07T16:35:50.508Z,22.60
2024-03-07T16:38:18.732Z,24.10
2024-03-07T16:40:45.779Z,24.30
2024-03-07T16:43:14.009Z,27.60
2024-03-07T16:45:42.856Z,25.00
2024-03-07T16:48:09.897Z,25.60
2024-03-07T16:50:36.948Z,26.10
2024-03-07T16:53:05.306Z,24.90
2024-03-07T16:55:32.560Z,21.70
2024-03-07T17:00:30.456Z,24.30
2024-03-07T17:02:57.538Z,25.20
2024-03-07T17:05:24.479Z,23.80
2024-03-07T17:07:52.841Z,27.50
2024-03-07T17:10:19.690Z,32.70
2024-03-07T17:12:46.599Z,34.80
2024-03-07T17:15:14.772Z,52.90
2024-03-07T17:17:42.337Z,62.90
2024-03-07T17:20:09.395Z,57.00
2024-03-07T17:22:37.783Z,56.20
2024-03-07T17:25:04.706Z,35.30
2024-03-07T17:27:31.656Z,30.30
2024-03-07T17:29:59.806Z,31.30
2024-03-07T17:32:26.860Z,44.80
2024-03-07T17:34:54.124Z,36.80
2024-03-07T17:37:22.601Z,39.20
2024-03-07T17:39:49.344Z,29.50
2024-03-07T17:42:16.297Z,33.40
2024-03-07T17:44:44.381Z,44.70
2024-03-07T17:47:11.140Z,45.10
2024-03-07T17:49:38.151Z,31.30
2024-03-07T17:52:06.321Z,32.00
2024-03-07T17:54:33.267Z,35.30
2024-03-07T17:57:00.358Z,43.50
2024-03-07T17:59:29.107Z,64.00
2024-03-07T18:01:56.049Z,37.90
2024-03-07T18:04:22.988Z,36.00
2024-03-07T18:06:51.156Z,41.90
2024-03-07T18:09:18.005Z,49.50
2024-03-07T18:11:45.023Z,49.50
2024-03-07T18:14:13.335Z,39.30
2024-03-07T18:16:40.364Z,49.50
2024-03-07T18:19:07.430Z,35.10
2024-03-07T18:21:35.588Z,31.10
2024-03-07T18:24:02.588Z,27.10
2024-03-07T18:26:29.519Z,23.80
2024-03-07T18:28:57.873Z,29.20
2024-03-07T18:31:24.818Z,25.90
2024-03-07T18:33:52.239Z,27.00
2024-03-07T18:36:20.839Z,30.00
2024-03-07T18:38:47.889Z,51.20
2024-03-07T18:41:15.136Z,50.50
2024-03-07T18:43:43.515Z,48.40
2024-03-07T18:46:10.425Z,46.10
2024-03-07T18:48:37.871Z,47.60
2024-03-07T18:51:06.578Z,46.80
2024-03-07T18:53:33.675Z,47.00
2024-03-07T18:56:00.691Z,37.10
2024-03-07T18:58:28.774Z,23.30
2024-03-07T19:00:55.538Z,24.50
2024-03-07T19:03:23.233Z,31.60
2024-03-07T19:05:52.375Z,32.50
2024-03-07T19:08:19.510Z,33.60
2024-03-07T19:10:46.472Z,34.00
2024-03-07T19:13:14.832Z,36.30
2024-03-07T19:15:41.680Z,45.20
2024-03-07T19:18:08.588Z,41.60
2024-03-07T19:20:37.124Z,36.70
2024-03-07T19:23:04.166Z,31.60
2024-03-07T19:25:31.091Z,28.70
2024-03-07T19:27:59.709Z,27.90
2024-03-07T19:30:29.196Z,24.80
2024-03-07T19:32:57.803Z,27.00
2024-03-07T19:35:24.753Z,27.90
2024-03-07T19:37:51.747Z,28.80
2024-03-07T19:40:19.929Z,24.40
2024-03-07T19:42:46.771Z,25.10
2024-03-07T19:45:13.630Z,21.90
2024-03-07T19:47:41.923Z,22.30
2024-03-07T19:50:09.245Z,24.80
2024-03-07T19:52:38.820Z,24.50
2024-03-07T19:55:08.140Z,25.60
2024-03-07T19:57:35.099Z,25.80
2024-03-07T20:00:02.038Z,26.70
2024-03-07T20:02:30.412Z,26.30
2024-03-07T20:04:57.359Z,30.50
2024-03-07T20:07:24.308Z,32.70
2024-03-07T20:09:52.435Z,31.60
2024-03-07T20:12:19.301Z,33.90
2024-03-07T20:14:46.190Z,36.90
2024-03-07T20:17:14.436Z,39.40
2024-03-07T20:19:41.386Z,46.80
2024-03-07T20:22:08.327Z,45.00
2024-03-07T20:24:36.494Z,31.80
2024-03-07T20:27:03.728Z,27.20
2024-03-07T20:29:30.937Z,24.30
2024-03-07T20:31:59.215Z,32.10
2024-03-07T20:34:26.224Z,23.30
2024-03-07T20:36:53.268Z,30.20
2024-03-07T20:39:21.447Z,28.50
2024-03-07T20:41:48.546Z,24.20
2024-03-07T20:44:15.536Z,28.10
2024-03-07T20:46:43.914Z,26.80
2024-03-07T20:49:11.262Z,46.20
2024-03-07T20:51:38.422Z,51.90
2024-03-07T20:54:06.757Z,27.80
2024-03-07T20:56:33.886Z,25.70
2024-03-07T20:59:00.886Z,27.10
2024-03-07T21:01:29.055Z,30.50
2024-03-07T21:03:59.077Z,26.00
2024-03-07T21:06:28.384Z,31.00
2024-03-07T21:08:55.388Z,45.00
2024-03-07T21:11:22.688Z,24.60
2024-03-07T21:13:50.847Z,26.00
2024-03-07T21:16:17.791Z,22.80
2024-03-07T21:18:44.950Z,29.10
2024-03-07T21:21:13.277Z,22.10
2024-03-07T21:23:40.491Z,19.40
2024-03-07T21:26:07.418Z,17.60
2024-03-07T21:28:35.585Z,22.40
2024-03-07T21:31:02.428Z,24.90
2024-03-07T21:33:29.585Z,21.30
2024-03-07T21:35:58.065Z,20.00
2024-03-07T21:38:25.055Z,16.60
2024-03-07T21:40:52.154Z,18.10
2024-03-07T21:43:20.228Z,17.40
2024-03-07T21:45:47.164Z,19.70
2024-03-07T21:48:14.160Z,21.60
2024-03-07T21:50:42.512Z,19.40
2024-03-07T21:53:09.446Z,21.70
2024-03-07T21:55:36.697Z,20.80
2024-03-07T21:58:04.980Z,18.50
2024-03-07T22:00:32.282Z,21.70
2024-03-07T22:03:01.971Z,27.40
2024-03-07T22:05:32.416Z,17.80
2024-03-07T22:08:00.402Z,18.50
2024-03-07T22:10:29.822Z,19.50
2024-03-07T22:12:56.673Z,18.30
2024-03-07T22:15:23.949Z,21.10
2024-03-07T22:17:52.894Z,23.00
2024-03-07T22:20:20.059Z,26.30
2024-03-07T22:22:46.900Z,28.70
2024-03-07T22:25:15.063Z,26.20
2024-03-07T22:27:42.050Z,22.30
2024-03-07T22:30:08.978Z,22.10
2024-03-07T22:32:37.194Z,22.60
2024-03-07T22:35:04.875Z,23.40
2024-03-07T22:37:32.148Z,22.70
2024-03-07T22:40:00.356Z,26.20
2024-03-07T22:42:27.466Z,29.20
2024-03-07T22:44:54.421Z,33.20
2024-03-07T22:47:22.771Z,23.10
2024-03-07T22:49:49.656Z,22.30
2024-03-07T22:52:16.474Z,23.70
2024-03-07T22:54:45.972Z,21.20
2024-03-07T22:57:14.148Z,23.40
2024-03-07T22:59:43.698Z,27.10
2024-03-07T23:02:10.602Z,24.20
2024-03-07T23:04:37.541Z,18.30
2024-03-07T23:07:05.822Z,35.60
2024-03-07T23:09:32.768Z,29.10
2024-03-07T23:11:59.726Z,27.60
2024-03-07T23:14:27.926Z,22.60
2024-03-07T23:16:54.916Z,21.20
2024-03-07T23:19:22.189Z,22.70
2024-03-07T23:21:50.452Z,21.50
2024-03-07T23:24:17.460Z,27.70
2024-03-07T23:26:44.608Z,27.00
2024-03-07T23:29:12.824Z,20.80
2024-03-07T23:31:39.767Z,18.10
2024-03-07T23:34:06.748Z,19.10
2024-03-07T23:36:34.890Z,17.60
2024-03-07T23:39:02.210Z,16.60
2024-03-07T23:41:29.230Z,16.90
2024-03-07T23:43:57.460Z,18.70
2024-03-07T23:46:24.513Z,19.10
2024-03-07T23:48:51.764Z,22.20
2024-03-07T23:51:20.340Z,21.80
2024-03-07T23:53:47.188Z,21.20
2024-03-07T23:56:14.334Z,16.40
2024-03-07T23:58:42.426Z,22.40
